sensor_id;sensor_type;location;lat;lon;timestamp;pressure;altitude;pressure_sealevel;temperature;humidity
31088;BME280;17745;55.914;37.554;2023-07-31T00:35:57;98387.06;;;19.12;53.26
31088;BME280;17745;55.914;37.554;2023-07-31T00:39:11;98380.44;;;19.10;53.36
31088;BME280;17745;55.914;37.554;2023-07-31T00:42:59;98372.25;;;19.06;53.40
31088;BME280;17745;55.914;37.554;2023-07-31T00:46:24;98380.97;;;19.03;53.50
31088;BME280;17745;55.914;37.554;2023-07-31T00:50:01;98377.66;;;18.97;53.59
31088;BME280;17745;55.914;37.554;2023-07-31T01:04:47;98372.19;;;18.72;54.11
31088;BME280;17745;55.914;37.554;2023-07-31T01:08:02;98371.59;;;18.67;54.24
31088;BME280;17745;55.914;37.554;2023-07-31T01:11:31;98374.03;;;18.60;54.31
31088;BME280;17745;55.914;37.554;2023-07-31T01:14:42;98382.72;;;18.56;54.51
31088;BME280;17745;55.914;37.554;2023-07-31T01:17:57;98377.87;;;18.50;54.57
31088;BME280;17745;55.914;37.554;2023-07-31T01:31:46;98376.50;;;18.43;54.68
31088;BME280;17745;55.914;37.554;2023-07-31T01:38:41;98382.84;;;18.39;55.10
31088;BME280;17745;55.914;37.554;2023-07-31T01:42:37;98382.38;;;18.37;55.13
31088;BME280;17745;55.914;37.554;2023-07-31T05:42:51;98394.66;;;24.15;45.45
31088;BME280;17745;55.914;37.554;2023-07-31T05:46:16;98390.94;;;24.23;45.15
31088;BME280;17745;55.914;37.554;2023-07-31T05:49:53;98400.37;;;24.37;45.05
31088;BME280;17745;55.914;37.554;2023-07-31T05:53:24;98401.81;;;24.58;44.50
31088;BME280;17745;55.914;37.554;2023-07-31T05:57:11;98405.78;;;24.64;43.57
31088;BME280;17745;55.914;37.554;2023-07-31T13:01:43;98432.06;;;37.30;22.80
31088;BME280;17745;55.914;37.554;2023-07-31T13:04:40;98424.53;;;37.72;22.22
31088;BME280;17745;55.914;37.554;2023-07-31T13:08:08;98420.56;;;38.57;21.06
31088;BME280;17745;55.914;37.554;2023-07-31T13:11:42;98414.38;;;39.24;19.90
31088;BME280;17745;55.914;37.554;2023-07-31T13:15:04;98415.13;;;38.81;19.43
31088;BME280;17745;55.914;37.554;2023-07-31T13:17:59;98420.06;;;37.56;19.99
31088;BME280;17745;55.914;37.554;2023-07-31T13:21:12;98415.94;;;37.70;20.16
31088;BME280;17745;55.914;37.554;2023-07-31T13:24:16;98418.09;;;38.40;19.45
31088;BME280;17745;55.914;37.554;2023-07-31T17:52:46;98513.06;;;24.25;43.19
31088;BME280;17745;55.914;37.554;2023-07-31T17:55:37;98526.88;;;24.20;43.41
31088;BME280;17745;55.914;37.554;2023-07-31T17:58:51;98511.72;;;24.16;43.45
31088;BME280;17745;55.914;37.554;2023-07-31T18:01:57;98526.31;;;24.11;43.52
31088;BME280;17745;55.914;37.554;2023-07-31T18:04:41;98524.75;;;24.10;43.84
31088;BME280;17745;55.914;37.554;2023-07-31T18:07:22;98525.78;;;24.02;43.88
31088;BME280;17745;55.914;37.554;2023-07-31T18:10:03;98533.38;;;23.96;44.11
31088;BME280;17745;55.914;37.554;2023-07-31T18:12:45;98536.44;;;23.94;44.55
31088;BME280;17745;55.914;37.554;2023-07-31T18:15:19;98541.78;;;23.91;44.55
31088;BME280;17745;55.914;37.554;2023-07-31T18:18:27;98533.59;;;23.87;44.70
31088;BME280;17745;55.914;37.554;2023-07-31T18:22:00;98541.00;;;23.90;44.91
31088;BME280;17745;55.914;37.554;2023-07-31T18:25:20;98540.91;;;23.87;44.94
31088;BME280;17745;55.914;37.554;2023-07-31T18:28:16;98539.75;;;23.84;45.05
31088;BME280;17745;55.914;37.554;2023-07-31T18:34:19;98539.97;;;23.75;45.52
31088;BME280;17745;55.914;37.554;2023-07-31T18:36:57;98538.31;;;23.70;45.67
31088;BME280;17745;55.914;37.554;2023-07-31T18:39:38;98540.94;;;23.67;45.91
31088;BME280;17745;55.914;37.554;2023-07-31T18:45:58;98549.34;;;23.62;46.22
31088;BME280;17745;55.914;37.554;2023-07-31T18:48:54;98547.72;;;23.57;46.42
31088;BME280;17745;55.914;37.554;2023-07-31T18:51:39;98546.44;;;23.51;46.64
31088;BME280;17745;55.914;37.554;2023-07-31T18:55:08;98552.87;;;23.46;46.74
31088;BME280;17745;55.914;37.554;2023-07-31T18:58:13;98541.25;;;23.42;46.89
31088;BME280;17745;55.914;37.554;2023-07-31T19:01:25;98553.56;;;23.39;47.01
31088;BME280;17745;55.914;37.554;2023-07-31T19:04:00;98549.19;;;23.35;47.07
31088;BME280;17745;55.914;37.554;2023-07-31T19:06:49;98545.91;;;23.25;47.12
31088;BME280;17745;55.914;37.554;2023-07-31T19:09:40;98551.94;;;23.19;47.32
31088;BME280;17745;55.914;37.554;2023-07-31T19:12:23;98544.97;;;23.18;47.58
31088;BME280;17745;55.914;37.554;2023-07-31T19:15:19;98551.50;;;23.17;47.58
31088;BME280;17745;55.914;37.554;2023-07-31T19:18:00;98546.03;;;23.13;47.61
31088;BME280;17745;55.914;37.554;2023-07-31T19:20:36;98550.72;;;23.16;47.88
31088;BME280;17745;55.914;37.554;2023-07-31T19:23:10;98551.06;;;23.14;47.94
31088;BME280;17745;55.914;37.554;2023-07-31T19:26:00;98549.06;;;23.11;47.97
31088;BME280;17745;55.914;37.554;2023-07-31T19:29:32;98547.50;;;23.10;48.21
31088;BME280;17745;55.914;37.554;2023-07-31T19:32:39;98555.59;;;23.10;48.28
31088;BME280;17745;55.914;37.554;2023-07-31T19:43:15;98555.16;;;23.08;48.43
31088;BME280;17745;55.914;37.554;2023-07-31T19:46:06;98551.72;;;23.08;48.49
31088;BME280;17745;55.914;37.554;2023-07-31T19:48:39;98557.03;;;23.04;48.59
31088;BME280;17745;55.914;37.554;2023-07-31T19:51:14;98556.59;;;23.02;48.57
31088;BME280;17745;55.914;37.554;2023-07-31T19:53:47;98560.06;;;23.03;48.67
31088;BME280;17745;55.914;37.554;2023-07-31T19:56:17;98562.25;;;22.97;48.78
31088;BME280;17745;55.914;37.554;2023-07-31T19:58:56;98557.12;;;22.92;48.98
31088;BME280;17745;55.914;37.554;2023-07-31T20:01:28;98558.25;;;22.91;49.15
31088;BME280;17745;55.914;37.554;2023-07-31T20:04:10;98563.59;;;22.87;49.23
31088;BME280;17745;55.914;37.554;2023-07-31T20:06:57;98560.00;;;22.83;49.34
31088;BME280;17745;55.914;37.554;2023-07-31T20:09:58;98564.97;;;22.81;49.53
31088;BME280;17745;55.914;37.554;2023-07-31T20:12:37;98564.91;;;22.77;49.53
31088;BME280;17745;55.914;37.554;2023-07-31T20:15:58;98559.50;;;22.77;49.75
31088;BME280;17745;55.914;37.554;2023-07-31T20:18:45;98567.25;;;22.79;49.92
31088;BME280;17745;55.914;37.554;2023-07-31T20:21:34;98564.09;;;22.77;50.02
31088;BME280;17745;55.914;37.554;2023-07-31T20:24:10;98567.94;;;22.76;49.97
31088;BME280;17745;55.914;37.554;2023-07-31T20:26:51;98560.19;;;22.74;50.06
31088;BME280;17745;55.914;37.554;2023-07-31T20:29:57;98563.34;;;22.76;50.03
31088;BME280;17745;55.914;37.554;2023-07-31T20:44:06;98571.94;;;22.82;49.94
31088;BME280;17745;55.914;37.554;2023-07-31T20:47:43;98581.97;;;22.81;50.01
31088;BME280;17745;55.914;37.554;2023-07-31T20:50:42;98587.34;;;22.81;50.04
31088;BME280;17745;55.914;37.554;2023-07-31T20:53:27;98583.78;;;22.77;50.03
31088;BME280;17745;55.914;37.554;2023-07-31T20:56:03;98579.06;;;22.74;50.12
31088;BME280;17745;55.914;37.554;2023-07-31T20:58:47;98573.69;;;22.74;50.20
